My Meet Scores
Emily Ruffennach, Kinetic Gymnastics - MyMeetScores.com
Top100 | Top Teams | Upcoming Meets | Completed Meets | Latest | Add Scores | Help| Support | Bookmark and Share

Emily Ruffennach, Kinetic Gymnastics
Personal Bests
LevelVault BarsBeamFloorAA
48.5008.450 9.0509.22533.975
58.5508.250 9.3509.00034.450
68.8758.525 8.7259.20035.150
78.9508.800 9.0759.07535.850
XB9.0009.600 9.5009.75037.050
XS8.5509.550 9.2759.65035.650
Scores on America's Top 100as of 01.26.2022
Year Level Vault Bars Beam Floor AA
2015 XB9.750

Click here to view our exclusive Top 100 Collection
Meet Scores
Date Meet Team Session Level Division Vault Bars Beam Floor AA
2022-01-22 5280 Women%27s Mile High Invitational Kinetic Gymnastics 1 7 Younger 8.950 7 8.750 11 9.075 10 9.075 22T 35.850 8
2022-01-07 Sweetheart Invitational 2022 Kinetic Gymnastics 1 7 Sr A 8.900 2 8.800 3 9.000 2 8.725 4 35.425 1
2021-04-10 CO Level 6/7 State Meet Kinetic Gymnastics 5 6 Sr A 8.550 13 7.950 13 8.400 10 9.100 11T 34.000 12
2021-03-05 Live, Love Gymnastics Kinetic Gymnastics 13 6 JUNIOR 8.750 6 8.525 8 8.675 5 9.200 2T 35.150 7
2021-01-15 Colorado Classic 2021 Kinetic Gymnastics 03 6 Senior 8.875 2 8.300 5T 8.725 4 9.175 5T 35.075 2
2019-11-09 2019 Colorado Level 2/5 State Meet Kinetic Gymnastics 2 5 Jr D 8.550 58T 7.900 62 9.050 16T 8.950 26T 34.450 45
2019-10-18 2019 Pink Ribbon Invitational Kinetic Gymnastics 5 5 Sr A 8.325 12 7.700 10 8.500 6 9.000 7T 33.525 8
2019-10-05 2019 Judge's Cup NAWGJ Colorado Kinetic Gymnastics 3 5 Junior 8.350 12 7.800 9 7.250 13 8.450 7 31.850 10
2019-09-27 2019 CGI Autumn Classic Kinetic Gymnastics 5 5 Junior 8.350 17 8.250 13 9.350 6 8.450 11 34.400 11
2019-09-14 2019 AGA Septemberfest Kinetic Gymnastics 3 5 Jr A 8.375 12 7.950 13 8.775 10 8.850 12 33.950 11
2018-11-16 2018 Colorado Level 4 State Meet Kinetic Gymnastics 2 4 J3 A 8.075 11 8.050 12 8.625 10 9.225 8 33.975 8T
2018-10-27 Xtreme Altitude Fall Classic Kinetic Gymnastics 2 4 Junior 7.775 19 8.450 18 8.650 9 8.750 14 33.625 16
2018-10-20 2018 JET Pink Ribbon Invitational Kinetic Gymnastics 3 4 Sr A 8.200 1 7.750 7T 9.050 5 8.900 3 33.900 4
2018-10-06 2018 AGA Rocktoberfest Kinetic Gymnastics 2 4 Jr 7.850 10T 8.000 12 8.550 9 8.575 8 32.975 10
2018-08-25 2018 Summer Carnival Kinetic Gymnastics 1 4 Jr A 8.350 8T 7.800 43T 8.375 15T 8.550 15T 33.075 18
2017-12-01 2017 Colorado Level 4 Girls State Meet Kinetic Gymnastics 1 4 Jr. A 7.800 8T 7.300 10 8.550 5 7.625 12 31.275 7
2017-11-11 2017 AGA Compulsory Meet Kinetic Gymnastics 2 4 Ch 8.500 12T 6.750 20 8.475 13 8.500 15T 32.225 17
2017-11-04 Mile High Salute Kinetic Gymnastics 1 4 Group 1 0.000 11 7.000 11 8.250 5T 8.150 7 23.400 11
2017-10-21 JET Gymnastics Pink Ribbon Invitational Kinetic Gymnastics 2 4 Jr B 8.150 12T 7.200 13 7.900 13 8.175 11 31.425 12
2017-10-06 Aspen Gymnastics Invitational Kinetic Gymnastics 3 4 Jr A 7.400 13 7.800 14 8.000 15 8.800 13 32.000 13T
2017-09-23 2017 UNO Invitational Kinetic Gymnastics 1 4 Child 8.400 7 7.750 9 8.900 1 8.200 7 33.250 8
2017-09-09 Premier Season Opener Kinetic Gymnastics 3 4 Younger 7.700 15T 6.850 17 7.950 16 8.250 13T 30.750 17
2016-06-10 2016 Colorado XS State Championship Kinetic Gymnastics 4 XS Jr A 8.150 14 9.550 1 8.725 5 9.125 5 35.550 5
2016-05-27 Cartwheel Carnival Kinetic Gymnastics 8 XS Child 8.200 17T 9.500 2 0.000 19T 9.100 5T 26.800 20
2016-04-15 Airborne April Showers Xcel Meet Kinetic Gymnastics 4 XS Child A 8.100 15 8.800 13T 9.100 5 9.650 1 35.650 5
2016-03-04 2016 CSI Colorado Sky Invitational Kinetic Gymnastics 4B XS Jr A 8.550 19T 9.300 5T 9.275 1T 8.300 11T 35.425 7T
2015-05-29 2015 TIGAR Summer Safari Kinetic Gymnastics 1 XB Child 9.000 10T 9.400 4T 8.700 14T 9.350 3 36.450 7
2015-05-15 Live, Love, And Gymnastics Kinetic Gymnastics 8 XB Youth 8.000 13 9.600 1 9.000 11T 9.750 1 36.350 8
2015-04-10 Hippity Hoppity V 2015 Kinetic Gymnastics 3 XB Child 8.900 8 9.500 1 9.500 1 9.150 1 37.050 1
Get your scores on
a t-shirt, pin, or hoodie